首页
METAR-TAF:

METAR-TAF

机场 :

New Richmond Regional Airport

New Richmond, 威斯康辛州, 美国

纬度: 45-08-54N, 经度: 092-32-17W, 海拔: 304米

当前天气观测

该预报发布于34分钟前的05:55 UTC
风速3节,风向
温度 24°C
湿度 89%
气压 1002 hPa
能見度: 16.1公里
散云层高于900英尺
多云层高于2000英尺
多云层高于3700英尺
小雨

METAR: KRNH 250555Z AUTO 35003KT 10SM -RA SCT009 BKN020 BKN037 24/22 A2959 RMK AO2 P0009 60009 T02350215 10263 20235 402820154

时间: 01:29 (06:29 UTC)

预报

该预报发布于1小时和6分钟前的05:23 UTC
预报有效从25日的 06点(UTC)到 26日的 06点(UTC)
风速12节,风向西转西北,有时为18节阵风
能見度: 10公里
多云层高于6000英尺, 积雨云.
附近有雷暴
从 25日的 0700点(UTC)
风速8节,风向西转西北
能見度: 10公里
多云层高于25000英尺
从 25日的 1800点(UTC)
风速9节,风向西转西北
能見度: 10公里
多云层高于15000英尺

TAF: KRNH 250523Z 2506/2606 30012G18KT P6SM VCTS BKN060CB FM250700 30008KT P6SM BKN250 FM251800 29009KT P6SM BKN150

超过4000个机场的气象观测和天气预报(METAR&TAF报告)。

可查询的气象台以黄色和红色小点在地图上表示。

将鼠标移到小点上方,可查看气象台名称。

然后点击查看天气观测和预报。

如需切换地图:点击带黑十字的绿色按钮放大地图;点击带横线的绿色按钮缩小地图;或者点击绿色箭头查看邻近地区的地图。


METAR-TAF: